Terminal Aerodrome Forecast
Issued by NWS Tuscon, AZ

Home | Current Version | Previous Version | Text Only | Print | Product List | Glossary On
Versions: 1 2 3 4 5 6 7 8 9 10 11 12 13 14 15 16
000
FTUS45 KTWC 302211 AAA
TAFDUG
TAF AMD
KDUG 302211Z 3022/3118 09013KT P6SM VCTS SCT080CB BKN200
      TEMPO 3022/3024 VRB20G35KT 4SM TSRA BKN080CB OVC150
     FM310100 25007KT P6SM VCSH BKN080 BKN200
     FM310300 VRB05KT P6SM SCT100 BKN200=

USA.gov is the U.S. government's official web portal to all federal, state and local government web resources and services.